createdAt,value
2022-12-03T00:01:21.262Z,2.80
2022-12-03T00:03:49.849Z,2.70
2022-12-03T00:06:18.355Z,2.70
2022-12-03T00:08:47.990Z,2.70
2022-12-03T00:11:16.357Z,2.80
2022-12-03T00:13:45.538Z,2.80
2022-12-03T00:16:13.864Z,2.70
2022-12-03T00:18:42.564Z,2.70
2022-12-03T00:21:10.825Z,2.70
2022-12-03T00:23:42.243Z,2.70
2022-12-03T00:26:12.414Z,2.70
2022-12-03T00:28:40.746Z,2.70
2022-12-03T00:31:09.080Z,2.80
2022-12-03T00:33:37.505Z,2.80
2022-12-03T00:36:06.426Z,2.70
2022-12-03T00:38:34.707Z,2.80
2022-12-03T00:41:03.127Z,2.70
2022-12-03T00:43:32.911Z,2.70
2022-12-03T00:46:01.480Z,2.70
2022-12-03T00:48:33.268Z,2.70
2022-12-03T00:51:05.476Z,2.70
2022-12-03T00:53:34.267Z,2.70
2022-12-03T00:56:02.714Z,2.70
2022-12-03T00:58:32.291Z,2.70
2022-12-03T01:01:00.693Z,2.70
2022-12-03T01:03:28.947Z,2.70
2022-12-03T01:05:57.363Z,2.70
2022-12-03T01:08:26.064Z,2.70
2022-12-03T01:10:54.475Z,2.70
2022-12-03T01:13:22.748Z,2.70
2022-12-03T01:15:52.872Z,2.60
2022-12-03T01:18:21.059Z,2.50
2022-12-03T01:20:49.304Z,2.60
2022-12-03T01:23:18.020Z,2.60
2022-12-03T01:25:46.203Z,2.60
2022-12-03T01:28:14.417Z,2.50
2022-12-03T01:30:56.993Z,2.60
2022-12-03T01:33:26.647Z,2.60
2022-12-03T01:35:55.200Z,2.60
2022-12-03T01:38:24.057Z,2.60
2022-12-03T01:40:54.775Z,2.60
2022-12-03T01:43:23.092Z,2.60
2022-12-03T01:45:51.896Z,2.60
2022-12-03T01:48:20.169Z,2.60
2022-12-03T01:50:49.905Z,2.60
2022-12-03T01:53:20.099Z,2.50
2022-12-03T01:55:49.076Z,2.50
2022-12-03T01:58:18.457Z,2.60
2022-12-03T02:00:46.919Z,2.60
2022-12-03T02:03:20.945Z,2.70
2022-12-03T02:05:50.761Z,2.70
2022-12-03T02:08:29.712Z,2.80
2022-12-03T02:10:59.432Z,2.70
2022-12-03T02:13:27.787Z,2.80
2022-12-03T02:15:56.277Z,2.80
2022-12-03T02:18:24.946Z,2.70
2022-12-03T02:21:04.277Z,2.70
2022-12-03T02:23:39.209Z,2.70
2022-12-03T02:26:09.120Z,2.70
2022-12-03T02:28:38.205Z,2.60
2022-12-03T02:31:07.261Z,2.60
2022-12-03T02:33:35.645Z,2.80
2022-12-03T02:36:04.351Z,2.60
2022-12-03T02:38:35.484Z,2.70
2022-12-03T02:41:07.360Z,2.60
2022-12-03T02:43:38.238Z,2.60
2022-12-03T02:46:08.993Z,2.50
2022-12-03T02:48:39.666Z,2.50
2022-12-03T02:51:11.020Z,2.50
2022-12-03T02:53:42.844Z,2.50
2022-12-03T02:56:15.057Z,2.50
2022-12-03T02:58:47.451Z,2.50
2022-12-03T03:01:17.197Z,2.60
2022-12-03T03:03:49.141Z,2.60
2022-12-03T03:06:19.135Z,2.60
2022-12-03T03:08:47.422Z,2.70
2022-12-03T03:11:16.017Z,2.70
2022-12-03T03:13:45.975Z,2.60
2022-12-03T03:16:14.308Z,2.60
2022-12-03T03:18:42.908Z,2.60
2022-12-03T03:21:11.254Z,2.70
2022-12-03T03:23:39.510Z,2.60
2022-12-03T03:26:09.967Z,2.60
2022-12-03T03:28:42.802Z,2.60
2022-12-03T03:31:16.232Z,2.60
2022-12-03T03:33:47.252Z,2.60
2022-12-03T03:36:16.354Z,2.50
2022-12-03T03:38:45.386Z,2.70
2022-12-03T03:41:15.600Z,2.60
2022-12-03T03:43:45.421Z,2.50
2022-12-03T03:46:16.285Z,2.60
2022-12-03T03:48:46.008Z,2.50
2022-12-03T03:51:14.635Z,2.50
2022-12-03T03:53:45.762Z,2.50
2022-12-03T03:56:14.569Z,2.60
2022-12-03T03:58:43.157Z,2.60
2022-12-03T04:01:15.335Z,2.50
2022-12-03T04:03:43.989Z,2.50
2022-12-03T04:06:12.311Z,2.50
2022-12-03T04:08:40.748Z,2.50
2022-12-03T04:11:26.465Z,2.50
2022-12-03T04:13:55.173Z,2.60
2022-12-03T04:16:24.999Z,2.60
2022-12-03T04:18:53.165Z,2.60
2022-12-03T04:21:41.045Z,2.60
2022-12-03T04:24:11.249Z,2.60
2022-12-03T04:26:57.368Z,2.60
2022-12-03T04:29:25.995Z,2.50
2022-12-03T04:32:13.467Z,2.60
2022-12-03T04:34:59.181Z,2.70
2022-12-03T04:37:27.544Z,2.70
2022-12-03T04:39:56.044Z,2.80
2022-12-03T04:42:24.499Z,2.70
2022-12-03T04:44:53.124Z,2.70
2022-12-03T04:47:23.769Z,2.60
2022-12-03T04:49:52.934Z,2.60
2022-12-03T04:52:22.035Z,2.70
2022-12-03T04:54:50.325Z,2.70
2022-12-03T04:57:18.876Z,2.70
2022-12-03T04:59:47.172Z,2.60
2022-12-03T05:02:15.406Z,2.60
2022-12-03T05:04:45.177Z,2.70
2022-12-03T05:07:13.647Z,2.70
2022-12-03T05:09:41.820Z,2.70
2022-12-03T05:12:10.378Z,2.70
2022-12-03T05:14:38.691Z,2.80
2022-12-03T05:17:06.978Z,2.80
2022-12-03T05:19:49.365Z,2.70
2022-12-03T05:22:18.959Z,2.70
2022-12-03T05:24:47.361Z,2.70
2022-12-03T05:27:21.737Z,2.70
2022-12-03T05:29:52.571Z,2.70
2022-12-03T05:32:21.133Z,2.70
2022-12-03T05:34:49.222Z,2.70
2022-12-03T05:37:19.250Z,2.60
2022-12-03T05:39:47.700Z,2.70
2022-12-03T05:42:33.093Z,2.80
2022-12-03T05:45:02.057Z,2.70
2022-12-03T05:47:30.278Z,2.60
2022-12-03T05:49:58.702Z,2.60
2022-12-03T05:52:28.876Z,2.60
2022-12-03T05:54:57.647Z,2.70
2022-12-03T05:57:26.187Z,2.50
2022-12-03T05:59:55.019Z,2.60
2022-12-03T06:02:23.352Z,2.60
2022-12-03T06:04:51.928Z,2.60
2022-12-03T06:07:20.803Z,2.70
2022-12-03T06:09:50.297Z,2.70
2022-12-03T06:12:18.475Z,2.80
2022-12-03T06:14:46.955Z,2.80
2022-12-03T06:17:15.547Z,2.80
2022-12-03T06:19:43.708Z,2.80
2022-12-03T06:22:12.064Z,2.90
2022-12-03T06:24:40.447Z,2.80
2022-12-03T06:27:10.055Z,2.80
2022-12-03T06:29:38.467Z,2.90
2022-12-03T06:32:07.567Z,2.90
2022-12-03T06:34:35.785Z,2.90
2022-12-03T06:37:04.287Z,2.80
2022-12-03T06:39:33.693Z,2.70
2022-12-03T06:42:01.920Z,2.70
2022-12-03T06:44:31.963Z,2.80
2022-12-03T06:47:00.439Z,2.70
2022-12-03T06:49:28.704Z,2.60
2022-12-03T06:51:57.560Z,2.60
2022-12-03T06:54:26.299Z,2.60
2022-12-03T06:56:55.076Z,2.70
2022-12-03T06:59:23.319Z,2.70
2022-12-03T07:01:53.227Z,2.60
2022-12-03T07:04:21.479Z,2.60
2022-12-03T07:06:50.062Z,2.60
2022-12-03T07:09:18.608Z,2.70
2022-12-03T07:11:46.833Z,2.60
2022-12-03T07:14:16.432Z,2.60
2022-12-03T07:16:45.192Z,2.80
2022-12-03T07:19:15.675Z,2.70
2022-12-03T07:21:43.986Z,2.80
2022-12-03T07:24:12.439Z,2.80
2022-12-03T07:26:40.652Z,2.90
2022-12-03T07:29:08.933Z,2.80
2022-12-03T07:31:37.234Z,2.80
2022-12-03T07:34:05.509Z,2.80
2022-12-03T07:36:35.483Z,2.80
2022-12-03T07:39:04.351Z,2.80
2022-12-03T07:41:32.739Z,2.80
2022-12-03T07:44:01.161Z,2.80
2022-12-03T07:46:29.643Z,2.70
2022-12-03T07:48:57.934Z,2.60
2022-12-03T07:51:31.991Z,2.60
2022-12-03T07:54:02.280Z,2.70
2022-12-03T07:56:30.577Z,2.70
2022-12-03T07:58:58.807Z,2.70
2022-12-03T08:01:27.382Z,2.70
2022-12-03T08:03:55.860Z,2.80
2022-12-03T08:06:24.125Z,2.90
2022-12-03T08:08:52.426Z,2.90
2022-12-03T08:11:37.339Z,2.90
2022-12-03T08:14:13.522Z,2.90
2022-12-03T08:16:43.532Z,2.80
2022-12-03T08:19:13.425Z,2.80
2022-12-03T08:21:43.827Z,2.80
2022-12-03T08:24:16.003Z,2.90
2022-12-03T08:26:47.496Z,2.80
2022-12-03T08:29:17.654Z,2.80
2022-12-03T08:31:52.072Z,2.90
2022-12-03T08:34:25.259Z,2.90
2022-12-03T08:36:58.605Z,2.90
2022-12-03T08:39:34.549Z,2.90
2022-12-03T08:42:30.634Z,2.80
2022-12-03T08:45:02.045Z,2.90
2022-12-03T08:47:31.027Z,3.00
2022-12-03T08:50:03.180Z,3.10
2022-12-03T08:52:33.329Z,3.00
2022-12-03T08:55:11.993Z,3.00
2022-12-03T08:57:43.881Z,3.10
2022-12-03T09:00:19.940Z,3.10
2022-12-03T09:02:51.827Z,3.10
2022-12-03T09:05:22.340Z,3.10
2022-12-03T09:07:50.639Z,3.00
2022-12-03T09:10:18.973Z,3.10
2022-12-03T09:12:49.065Z,3.10
2022-12-03T09:15:17.859Z,3.10
2022-12-03T09:17:46.107Z,3.20
2022-12-03T09:20:15.732Z,3.30
2022-12-03T09:22:43.992Z,3.20
2022-12-03T09:25:12.432Z,3.30
2022-12-03T09:27:41.348Z,3.40
2022-12-03T09:30:11.887Z,3.50
2022-12-03T09:32:40.234Z,3.40
2022-12-03T09:35:09.606Z,3.50
2022-12-03T09:37:37.722Z,3.30
2022-12-03T09:40:07.397Z,3.30
2022-12-03T09:42:36.199Z,3.40
2022-12-03T09:45:10.877Z,3.30
2022-12-03T09:47:43.558Z,3.20
2022-12-03T09:50:14.552Z,3.30
2022-12-03T09:52:45.306Z,3.30
2022-12-03T09:55:17.899Z,3.30
2022-12-03T09:57:46.837Z,3.40
2022-12-03T10:00:18.877Z,3.40
2022-12-03T10:02:51.082Z,3.30
2022-12-03T10:05:21.307Z,3.30
2022-12-03T10:07:50.395Z,3.30
2022-12-03T10:10:20.830Z,3.30
2022-12-03T10:12:49.677Z,3.40
2022-12-03T10:15:20.924Z,3.30
2022-12-03T10:17:53.022Z,3.40
2022-12-03T10:20:23.716Z,3.40
2022-12-03T10:22:51.930Z,3.40
2022-12-03T10:25:22.901Z,3.40
2022-12-03T10:27:59.116Z,3.30
2022-12-03T10:30:28.877Z,3.30
2022-12-03T10:33:02.700Z,3.30
2022-12-03T10:35:39.507Z,3.50
2022-12-03T10:38:09.318Z,3.50
2022-12-03T10:40:39.333Z,3.40
2022-12-03T10:43:26.275Z,3.50
2022-12-03T10:46:14.210Z,3.70
2022-12-03T10:48:44.285Z,3.60
2022-12-03T10:51:20.913Z,3.60
2022-12-03T10:53:51.541Z,3.60
2022-12-03T10:56:27.465Z,3.60
2022-12-03T10:58:56.694Z,3.60
2022-12-03T11:01:27.001Z,3.60
2022-12-03T11:04:02.385Z,3.70
2022-12-03T11:06:33.422Z,3.90
2022-12-03T11:09:08.741Z,3.80
2022-12-03T11:11:37.459Z,3.80
2022-12-03T11:14:06.524Z,3.90
2022-12-03T11:17:07.235Z,3.90
2022-12-03T11:20:01.004Z,3.60
2022-12-03T11:22:45.051Z,3.60
2022-12-03T11:25:37.452Z,3.70
2022-12-03T11:28:35.006Z,3.80
2022-12-03T11:31:09.596Z,3.90
2022-12-03T11:33:39.332Z,3.80
2022-12-03T11:36:15.500Z,3.70
2022-12-03T11:38:57.843Z,3.70
2022-12-03T11:41:29.875Z,3.80
2022-12-03T11:44:04.931Z,3.80
2022-12-03T11:46:43.891Z,3.70
2022-12-03T11:49:36.376Z,3.70
2022-12-03T11:52:22.369Z,3.70
2022-12-03T11:54:53.272Z,3.70
2022-12-03T11:57:28.772Z,3.70
2022-12-03T12:00:14.453Z,3.70
2022-12-03T12:02:43.377Z,3.70
2022-12-03T12:05:20.387Z,3.60
2022-12-03T12:07:50.550Z,3.60
2022-12-03T12:10:44.397Z,3.60
2022-12-03T12:13:52.638Z,3.60
2022-12-03T12:16:42.534Z,3.70
2022-12-03T12:19:34.862Z,3.60
2022-12-03T12:22:18.647Z,3.50
2022-12-03T12:24:52.565Z,3.40
2022-12-03T12:27:22.867Z,3.40
2022-12-03T12:29:56.554Z,3.40
2022-12-03T12:32:27.675Z,3.40
2022-12-03T12:35:00.667Z,3.30
2022-12-03T12:37:34.778Z,3.30
2022-12-03T12:40:15.333Z,3.40
2022-12-03T12:42:50.123Z,3.50
2022-12-03T12:45:21.595Z,3.60
2022-12-03T12:47:54.559Z,3.70
2022-12-03T12:50:23.334Z,3.80
2022-12-03T12:52:54.315Z,3.80
2022-12-03T12:55:25.249Z,3.80
2022-12-03T12:57:53.445Z,3.80
2022-12-03T13:00:24.405Z,3.70
2022-12-03T13:02:57.372Z,3.60
2022-12-03T13:05:27.839Z,3.50
2022-12-03T13:07:57.227Z,3.50
2022-12-03T13:10:40.183Z,3.60
2022-12-03T13:13:18.920Z,3.60
2022-12-03T13:15:51.828Z,3.70
2022-12-03T13:18:30.491Z,3.70
2022-12-03T13:20:58.801Z,3.60
2022-12-03T13:23:35.378Z,3.70
2022-12-03T13:26:32.818Z,3.70
2022-12-03T13:29:15.122Z,3.70
2022-12-03T13:31:48.002Z,3.60
2022-12-03T13:34:24.619Z,3.60
2022-12-03T13:36:57.957Z,3.40
2022-12-03T13:39:32.139Z,3.30
2022-12-03T13:42:31.919Z,3.30
2022-12-03T13:45:01.759Z,3.30
2022-12-03T13:47:30.296Z,3.40
2022-12-03T13:50:03.981Z,3.30
2022-12-03T13:52:33.037Z,3.20
2022-12-03T13:55:05.151Z,3.40
2022-12-03T13:57:34.849Z,3.30
2022-12-03T14:00:03.446Z,3.30
2022-12-03T14:02:32.133Z,3.30
2022-12-03T14:05:00.931Z,3.30
2022-12-03T14:07:29.490Z,3.20
2022-12-03T14:09:58.113Z,3.30
2022-12-03T14:12:33.742Z,3.40
2022-12-03T14:15:04.604Z,3.40
2022-12-03T14:17:32.975Z,3.30
2022-12-03T14:20:01.951Z,3.30
2022-12-03T14:22:30.927Z,3.30
2022-12-03T14:24:59.426Z,3.20
2022-12-03T14:27:28.406Z,3.20
2022-12-03T14:29:57.167Z,3.30
2022-12-03T14:32:27.173Z,3.30
2022-12-03T14:34:55.427Z,3.30
2022-12-03T14:37:23.808Z,3.20
2022-12-03T14:39:52.409Z,3.30
2022-12-03T14:42:21.280Z,3.30
2022-12-03T14:44:51.187Z,3.20
2022-12-03T14:47:22.526Z,3.20
2022-12-03T14:49:53.436Z,3.40
2022-12-03T14:52:21.946Z,3.50
2022-12-03T14:54:50.175Z,3.50
2022-12-03T14:57:19.039Z,3.50
2022-12-03T14:59:47.968Z,3.40
2022-12-03T15:02:16.279Z,3.40
2022-12-03T15:04:44.777Z,3.40
2022-12-03T15:07:14.424Z,3.30
2022-12-03T15:09:42.578Z,3.40
2022-12-03T15:12:11.136Z,3.50
2022-12-03T15:14:39.262Z,3.50
2022-12-03T15:17:07.529Z,3.60
2022-12-03T15:19:36.009Z,3.60
2022-12-03T15:22:04.250Z,3.70
2022-12-03T15:24:33.926Z,3.60
2022-12-03T15:27:02.481Z,3.60
2022-12-03T15:29:30.744Z,3.50
2022-12-03T15:32:01.058Z,3.50
2022-12-03T15:34:29.509Z,3.40
2022-12-03T15:36:58.121Z,3.40
2022-12-03T15:39:26.736Z,3.30
2022-12-03T15:41:56.590Z,3.30
2022-12-03T15:44:24.767Z,3.30
2022-12-03T15:46:53.008Z,3.40
2022-12-03T15:49:21.334Z,3.20
2022-12-03T15:51:49.546Z,3.20
2022-12-03T15:54:17.659Z,3.20
2022-12-03T15:56:46.050Z,3.30
2022-12-03T15:59:15.556Z,3.20
2022-12-03T16:01:43.958Z,3.10
2022-12-03T16:04:12.459Z,3.10
2022-12-03T16:06:40.799Z,3.20
2022-12-03T16:09:08.975Z,3.20
2022-12-03T16:11:37.492Z,3.20
2022-12-03T16:14:05.730Z,3.20
2022-12-03T16:16:35.536Z,3.20
2022-12-03T16:19:04.467Z,3.30
2022-12-03T16:21:34.682Z,3.40
2022-12-03T16:24:02.893Z,3.40
2022-12-03T16:26:31.415Z,3.30
2022-12-03T16:28:59.607Z,3.30
2022-12-03T16:31:28.340Z,3.40
2022-12-03T16:33:58.647Z,3.30
2022-12-03T16:36:27.029Z,3.30
2022-12-03T16:38:55.201Z,3.30
2022-12-03T16:41:23.811Z,3.40
2022-12-03T16:43:52.075Z,3.40
2022-12-03T16:46:26.481Z,3.30
2022-12-03T16:48:56.427Z,3.20
2022-12-03T16:51:27.056Z,3.10
2022-12-03T16:53:55.961Z,3.20
2022-12-03T16:56:24.311Z,3.10
2022-12-03T16:58:52.597Z,3.10
2022-12-03T17:01:20.763Z,3.20
2022-12-03T17:03:49.175Z,3.10
2022-12-03T17:06:17.482Z,3.10
2022-12-03T17:08:49.635Z,3.00
2022-12-03T17:11:18.631Z,3.10
2022-12-03T17:13:46.832Z,3.10
2022-12-03T17:16:15.075Z,3.10
2022-12-03T17:18:44.060Z,3.10
2022-12-03T17:21:12.239Z,3.00
2022-12-03T17:23:40.464Z,3.00
2022-12-03T17:26:10.341Z,2.90
2022-12-03T17:28:38.522Z,2.90
2022-12-03T17:31:07.028Z,2.90
2022-12-03T17:33:35.725Z,2.90
2022-12-03T17:36:03.930Z,3.00
2022-12-03T17:38:38.646Z,3.00
2022-12-03T17:41:09.110Z,3.00
2022-12-03T17:43:37.248Z,3.00
2022-12-03T17:46:06.770Z,3.00
2022-12-03T17:48:35.965Z,2.90
2022-12-03T17:51:04.152Z,3.00
2022-12-03T17:53:32.332Z,3.10
2022-12-03T17:56:00.432Z,3.10
2022-12-03T17:58:30.627Z,3.10
2022-12-03T18:01:02.718Z,3.10
2022-12-03T18:03:31.785Z,3.00
2022-12-03T18:06:00.118Z,3.00
2022-12-03T18:08:28.544Z,3.10
2022-12-03T18:10:56.966Z,3.10
2022-12-03T18:13:25.398Z,3.10
2022-12-03T18:15:55.517Z,3.10
2022-12-03T18:18:24.094Z,3.00
2022-12-03T18:20:53.719Z,2.90
2022-12-03T18:23:22.088Z,3.00
2022-12-03T18:25:50.561Z,3.10
2022-12-03T18:28:18.861Z,3.10
2022-12-03T18:30:52.275Z,2.90
2022-12-03T18:33:23.954Z,2.90
2022-12-03T18:35:55.405Z,2.80
2022-12-03T18:38:26.396Z,2.90
2022-12-03T18:40:56.655Z,2.80
2022-12-03T18:43:27.176Z,2.90
2022-12-03T18:45:55.716Z,3.00
2022-12-03T18:48:26.641Z,3.00
2022-12-03T18:50:55.326Z,3.00
2022-12-03T18:53:23.551Z,3.00
2022-12-03T18:55:51.946Z,3.00
2022-12-03T18:58:20.494Z,2.90
2022-12-03T19:00:48.684Z,3.00
2022-12-03T19:03:17.037Z,3.10
2022-12-03T19:05:46.958Z,3.10
2022-12-03T19:08:15.426Z,3.10
2022-12-03T19:10:44.372Z,3.00
2022-12-03T19:13:13.180Z,2.90
2022-12-03T19:15:41.425Z,2.80
2022-12-03T19:18:09.622Z,2.70
2022-12-03T19:20:41.416Z,2.70
2022-12-03T19:23:11.193Z,2.80
2022-12-03T19:25:39.361Z,2.80
2022-12-03T19:28:07.725Z,2.80
2022-12-03T19:30:36.091Z,2.80
2022-12-03T19:33:04.301Z,2.80
2022-12-03T19:35:32.876Z,2.80
2022-12-03T19:38:01.135Z,2.70
2022-12-03T19:40:32.201Z,2.70
2022-12-03T19:43:00.586Z,2.70
2022-12-03T19:45:28.887Z,2.70
2022-12-03T19:47:57.138Z,2.70
2022-12-03T19:50:25.497Z,2.70
2022-12-03T19:52:53.806Z,2.70
2022-12-03T19:55:21.959Z,2.70
2022-12-03T19:57:51.589Z,2.80
2022-12-03T20:00:20.243Z,2.60
2022-12-03T20:02:50.366Z,2.60
2022-12-03T20:05:19.020Z,2.70
2022-12-03T20:07:47.444Z,2.60
2022-12-03T20:10:15.673Z,2.70
2022-12-03T20:12:44.294Z,2.80
2022-12-03T20:15:14.910Z,2.80
2022-12-03T20:17:43.208Z,2.80
2022-12-03T20:20:12.407Z,2.60
2022-12-03T20:22:41.053Z,2.70
2022-12-03T20:25:10.066Z,2.80
2022-12-03T20:27:39.336Z,2.70
2022-12-03T20:30:08.647Z,2.80
2022-12-03T20:32:42.113Z,2.70
2022-12-03T20:35:13.741Z,2.80
2022-12-03T20:37:41.979Z,2.80
2022-12-03T20:40:11.048Z,2.90
2022-12-03T20:42:39.250Z,2.90
2022-12-03T20:45:08.952Z,2.80
2022-12-03T20:47:38.578Z,2.80
2022-12-03T20:50:08.154Z,2.70
2022-12-03T20:52:36.696Z,2.60
2022-12-03T20:55:05.355Z,2.60
2022-12-03T20:57:33.631Z,2.60
2022-12-03T21:00:02.179Z,2.60
2022-12-03T21:02:30.547Z,2.60
2022-12-03T21:05:00.333Z,2.60
2022-12-03T21:07:29.107Z,2.60
2022-12-03T21:09:57.578Z,2.60
2022-12-03T21:12:26.078Z,2.60
2022-12-03T21:14:54.579Z,2.60
2022-12-03T21:17:22.962Z,2.60
2022-12-03T21:19:51.189Z,2.60
2022-12-03T21:22:20.800Z,2.50
2022-12-03T21:24:49.008Z,2.50
2022-12-03T21:27:21.561Z,2.40
2022-12-03T21:29:50.970Z,2.40
2022-12-03T21:32:19.306Z,2.50
2022-12-03T21:34:47.471Z,2.40
2022-12-03T21:37:16.121Z,2.50
2022-12-03T21:39:45.712Z,2.60
2022-12-03T21:42:33.649Z,2.60
2022-12-03T21:45:02.464Z,2.60
2022-12-03T21:47:36.697Z,2.50
2022-12-03T21:50:07.100Z,2.50
2022-12-03T21:52:35.347Z,2.40
2022-12-03T21:55:05.151Z,2.40
2022-12-03T21:57:37.240Z,2.30
2022-12-03T22:00:07.753Z,2.30
2022-12-03T22:02:36.364Z,2.40
2022-12-03T22:05:04.925Z,2.40
2022-12-03T22:07:34.368Z,2.50
2022-12-03T22:10:05.010Z,2.50
2022-12-03T22:12:33.534Z,2.40
2022-12-03T22:15:01.966Z,2.40
2022-12-03T22:17:30.653Z,2.40
2022-12-03T22:19:59.266Z,2.50
2022-12-03T22:22:27.665Z,2.50
2022-12-03T22:24:55.954Z,2.50
2022-12-03T22:27:26.176Z,2.40
2022-12-03T22:29:54.437Z,2.40
2022-12-03T22:32:23.803Z,2.40
2022-12-03T22:34:52.112Z,2.50
2022-12-03T22:37:20.295Z,2.40
2022-12-03T22:39:48.997Z,2.40
2022-12-03T22:42:17.515Z,2.30
2022-12-03T22:44:47.020Z,2.30
2022-12-03T22:47:15.256Z,2.50
2022-12-03T22:49:43.451Z,2.50
2022-12-03T22:52:11.689Z,2.50
2022-12-03T22:54:40.404Z,2.40
2022-12-03T22:57:09.114Z,2.30
2022-12-03T22:59:37.243Z,2.30
2022-12-03T23:02:06.836Z,2.40
2022-12-03T23:04:35.196Z,2.30
2022-12-03T23:07:03.403Z,2.30
2022-12-03T23:09:31.682Z,2.40
2022-12-03T23:11:59.914Z,2.50
2022-12-03T23:14:28.054Z,2.50
2022-12-03T23:16:56.206Z,2.50
2022-12-03T23:19:26.075Z,2.60
2022-12-03T23:21:54.213Z,2.40
2022-12-03T23:24:22.282Z,2.30
2022-12-03T23:26:50.831Z,2.30
2022-12-03T23:29:18.943Z,2.30
2022-12-03T23:31:47.182Z,2.40
2022-12-03T23:34:15.748Z,2.50
2022-12-03T23:36:45.448Z,2.40
2022-12-03T23:39:13.570Z,2.40
2022-12-03T23:41:42.026Z,2.40
2022-12-03T23:44:10.134Z,2.40
2022-12-03T23:46:40.933Z,2.30
2022-12-03T23:49:09.329Z,2.30
2022-12-03T23:51:37.560Z,2.20
2022-12-03T23:54:07.365Z,2.30
2022-12-03T23:56:35.915Z,2.30
2022-12-03T23:59:03.986Z,2.40
